Sherman, Wisconsin
Current Conditions -  °F | °C
As of 5:15 AM on Thursday 23 Oct 2014 (Local Time) from KPBH Reporting Station
Light Rain Light Rain  
Wind Chill:   Ceiling: 8000
Heat Index:   Visibility: 10mi
Dew Point:   Wind: 7mph
Humidity: 87%   Direction: 180°S
Pressure: 30.06"   Gusts: NA
Location:  45.9599°N, 90.2362°W
Report Text: KPBH 231015Z AUTO 18006KT 10SM -RA SCT070 OVC080 07/05 A3006 RMK AO2 P0001 T00660046
Loading
Personal Weather Stations






























Interactive Weather Map
Tropical Storm Tracking
New forecast layout! Learn more

10-Day Weather Forecast

Advertisements
Track Severe Weather on mobile